createdAt,value
2022-12-27T00:01:33.093Z,64.14
2022-12-27T00:04:00.026Z,64.16
2022-12-27T00:06:28.266Z,64.17
2022-12-27T00:08:56.689Z,64.35
2022-12-27T00:11:26.127Z,64.28
2022-12-27T00:13:53.075Z,63.45
2022-12-27T00:16:21.106Z,63.79
2022-12-27T00:18:48.589Z,63.30
2022-12-27T00:21:16.901Z,63.46
2022-12-27T00:23:47.816Z,63.69
2022-12-27T00:26:21.194Z,64.06
2022-12-27T00:28:48.794Z,63.73
2022-12-27T00:31:16.836Z,63.92
2022-12-27T00:33:45.531Z,63.54
2022-12-27T00:36:18.327Z,63.33
2022-12-27T00:38:46.140Z,63.62
2022-12-27T00:41:14.993Z,62.98
2022-12-27T00:43:41.980Z,63.48
2022-12-27T00:46:09.992Z,63.61
2022-12-27T00:48:37.336Z,63.49
2022-12-27T00:51:24.755Z,63.55
2022-12-27T00:53:53.211Z,63.30
2022-12-27T00:56:26.567Z,64.23
2022-12-27T00:58:58.421Z,63.74
2022-12-27T01:01:27.295Z,64.05
2022-12-27T01:03:54.436Z,64.80
2022-12-27T01:06:24.210Z,64.73
2022-12-27T01:08:51.435Z,64.32
2022-12-27T01:11:18.987Z,65.15
2022-12-27T01:13:46.870Z,64.56
2022-12-27T01:16:16.641Z,65.01
2022-12-27T01:18:45.442Z,65.31
2022-12-27T01:21:14.457Z,65.38
2022-12-27T01:23:42.342Z,65.05
2022-12-27T01:26:12.541Z,66.50
2022-12-27T01:28:39.353Z,65.47
2022-12-27T01:31:08.612Z,65.28
2022-12-27T01:33:35.800Z,64.66
2022-12-27T01:36:31.950Z,64.40
2022-12-27T01:38:59.626Z,64.72
2022-12-27T01:41:30.819Z,64.26
2022-12-27T01:43:57.829Z,64.30
2022-12-27T01:46:24.799Z,65.15
2022-12-27T01:48:51.865Z,64.39
2022-12-27T01:51:19.386Z,64.62
2022-12-27T01:53:49.925Z,64.46
2022-12-27T01:56:31.380Z,64.58
2022-12-27T01:59:04.533Z,63.73
2022-12-27T02:01:38.693Z,63.75
2022-12-27T02:04:10.878Z,64.03
2022-12-27T02:06:39.603Z,63.71
2022-12-27T02:09:10.825Z,63.70
2022-12-27T02:11:42.165Z,63.93
2022-12-27T02:14:11.062Z,63.69
2022-12-27T02:16:38.278Z,64.37
2022-12-27T02:19:19.345Z,64.63
2022-12-27T02:21:52.235Z,63.89
2022-12-27T02:24:44.895Z,64.63
2022-12-27T02:27:44.245Z,64.57
2022-12-27T02:30:12.006Z,64.56
2022-12-27T02:32:56.889Z,64.52
2022-12-27T02:35:30.133Z,63.61
2022-12-27T02:38:04.558Z,63.59
2022-12-27T02:40:32.860Z,64.02
2022-12-27T02:43:00.355Z,64.73
2022-12-27T02:45:33.253Z,63.91
2022-12-27T02:48:00.365Z,64.37
2022-12-27T02:50:51.818Z,64.14
2022-12-27T02:53:27.976Z,64.49
2022-12-27T02:56:00.845Z,63.90
2022-12-27T02:58:39.194Z,64.08
2022-12-27T03:01:23.724Z,65.80
2022-12-27T03:04:25.414Z,65.55
2022-12-27T03:07:22.278Z,65.35
2022-12-27T03:10:07.496Z,65.20
2022-12-27T03:12:48.384Z,65.89
2022-12-27T03:15:40.524Z,65.75
2022-12-27T03:18:13.565Z,65.38
2022-12-27T03:20:43.999Z,65.77
2022-12-27T03:23:12.452Z,65.27
2022-12-27T03:25:42.844Z,64.49
2022-12-27T03:28:18.000Z,65.07
2022-12-27T03:30:50.182Z,64.62
2022-12-27T03:33:17.144Z,64.25
2022-12-27T03:35:53.148Z,64.42
2022-12-27T03:38:20.290Z,64.17
2022-12-27T03:40:52.352Z,64.31
2022-12-27T03:43:19.267Z,64.21
2022-12-27T03:46:31.135Z,64.87
2022-12-27T03:49:22.623Z,64.05
2022-12-27T03:52:25.099Z,63.80
2022-12-27T03:54:53.715Z,63.45
2022-12-27T03:57:24.050Z,63.26
2022-12-27T03:59:50.984Z,63.95
2022-12-27T04:02:18.905Z,64.43
2022-12-27T04:04:45.991Z,63.43
2022-12-27T04:07:14.343Z,64.06
2022-12-27T04:09:41.572Z,63.97
2022-12-27T04:12:08.627Z,63.84
2022-12-27T04:14:35.572Z,64.06
2022-12-27T04:17:02.434Z,63.60
2022-12-27T04:19:29.304Z,64.18
2022-12-27T04:21:56.211Z,63.90
2022-12-27T04:24:23.147Z,63.84
2022-12-27T04:26:49.955Z,63.93
2022-12-27T04:29:16.814Z,63.34
2022-12-27T04:31:43.691Z,63.58
2022-12-27T04:34:10.684Z,64.29
2022-12-27T04:36:37.687Z,63.63
2022-12-27T04:39:04.846Z,64.42
2022-12-27T04:41:31.762Z,64.71
2022-12-27T04:43:58.805Z,64.14
2022-12-27T04:46:26.916Z,65.53
2022-12-27T04:48:54.000Z,64.37
2022-12-27T04:51:20.859Z,65.19
2022-12-27T04:53:47.874Z,65.28
2022-12-27T04:56:14.709Z,64.90
2022-12-27T04:58:41.627Z,65.30
2022-12-27T05:01:13.977Z,64.55
2022-12-27T05:03:42.414Z,64.36
2022-12-27T05:06:09.734Z,65.74
2022-12-27T05:08:37.261Z,65.36
2022-12-27T05:11:04.235Z,64.75
2022-12-27T05:13:31.460Z,64.93
2022-12-27T05:15:58.559Z,64.97
2022-12-27T05:18:25.484Z,65.87
2022-12-27T05:20:52.460Z,65.48
2022-12-27T05:23:19.410Z,66.27
2022-12-27T05:25:47.435Z,65.72
2022-12-27T05:28:14.429Z,66.60
2022-12-27T05:30:43.327Z,66.92
2022-12-27T05:33:10.993Z,66.47
2022-12-27T05:35:38.101Z,66.19
2022-12-27T05:38:05.453Z,66.03
2022-12-27T05:40:32.494Z,66.69
2022-12-27T05:43:00.288Z,66.27
2022-12-27T05:45:27.915Z,66.03
2022-12-27T05:47:54.809Z,66.07
2022-12-27T05:50:21.785Z,65.57
2022-12-27T05:52:51.039Z,66.50
2022-12-27T05:55:17.984Z,65.98
2022-12-27T05:57:44.803Z,65.60
2022-12-27T06:00:12.492Z,65.55
2022-12-27T06:02:40.529Z,65.29
2022-12-27T06:05:09.190Z,64.82
2022-12-27T06:07:37.766Z,64.82
2022-12-27T06:10:06.921Z,64.64
2022-12-27T06:12:33.861Z,64.05
2022-12-27T06:15:00.798Z,64.10
2022-12-27T06:17:27.679Z,63.91
2022-12-27T06:19:57.282Z,65.32
2022-12-27T06:22:24.676Z,64.63
2022-12-27T06:24:51.688Z,64.49
2022-12-27T06:27:18.511Z,64.00
2022-12-27T06:29:45.348Z,63.89
2022-12-27T06:32:12.455Z,64.35
2022-12-27T06:34:39.312Z,64.53
2022-12-27T06:37:06.283Z,64.23
2022-12-27T06:39:33.141Z,64.62
2022-12-27T06:41:59.957Z,64.54
2022-12-27T06:44:26.836Z,64.31
2022-12-27T06:46:53.743Z,64.64
2022-12-27T06:49:20.555Z,64.29
2022-12-27T06:51:47.396Z,64.11
2022-12-27T06:54:14.667Z,64.52
2022-12-27T06:56:41.849Z,64.93
2022-12-27T06:59:08.774Z,64.88
2022-12-27T07:01:35.768Z,65.10
2022-12-27T07:04:02.746Z,65.17
2022-12-27T07:06:31.791Z,64.65
2022-12-27T07:09:00.719Z,64.39
2022-12-27T07:11:27.865Z,64.08
2022-12-27T07:13:55.990Z,63.88
2022-12-27T07:16:25.506Z,64.10
2022-12-27T07:18:54.295Z,63.95
2022-12-27T07:21:23.610Z,64.66
2022-12-27T07:23:51.109Z,64.26
2022-12-27T07:26:20.563Z,64.56
2022-12-27T07:28:47.786Z,63.82
2022-12-27T07:31:17.701Z,63.91
2022-12-27T07:33:45.166Z,63.91
2022-12-27T07:36:25.652Z,64.93
2022-12-27T07:38:52.817Z,64.23
2022-12-27T07:41:19.951Z,63.99
2022-12-27T07:43:47.086Z,64.20
2022-12-27T07:46:19.559Z,64.03
2022-12-27T07:48:47.589Z,64.05
2022-12-27T07:51:16.132Z,64.28
2022-12-27T07:53:43.868Z,64.16
2022-12-27T07:56:14.508Z,64.36
2022-12-27T07:58:44.502Z,64.37
2022-12-27T08:01:13.917Z,64.63
2022-12-27T08:03:41.612Z,64.81
2022-12-27T08:06:22.546Z,64.19
2022-12-27T08:08:51.351Z,64.38
2022-12-27T08:11:18.259Z,64.31
2022-12-27T08:13:45.169Z,64.30
2022-12-27T08:16:23.477Z,65.01
2022-12-27T08:18:51.027Z,65.30
2022-12-27T08:21:17.837Z,66.00
2022-12-27T08:23:45.452Z,65.22
2022-12-27T08:26:12.348Z,65.23
2022-12-27T08:28:39.652Z,64.33
2022-12-27T08:31:11.429Z,64.28
2022-12-27T08:33:38.698Z,63.97
2022-12-27T08:36:36.756Z,63.98
2022-12-27T08:38:55.811Z,64.18
2022-12-27T08:41:23.174Z,64.38
2022-12-27T08:43:50.272Z,63.92
2022-12-27T08:46:17.167Z,63.88
2022-12-27T08:48:44.133Z,64.26
2022-12-27T08:51:13.867Z,64.07
2022-12-27T08:53:44.094Z,64.76
2022-12-27T08:56:10.997Z,64.30
2022-12-27T08:58:37.905Z,65.63
2022-12-27T09:01:06.966Z,64.70
2022-12-27T09:03:34.167Z,65.71
2022-12-27T09:06:11.979Z,65.36
2022-12-27T09:08:39.234Z,64.81
2022-12-27T09:11:20.478Z,65.05
2022-12-27T09:13:47.529Z,64.25
2022-12-27T09:16:17.453Z,63.93
2022-12-27T09:18:48.431Z,64.89
2022-12-27T09:21:16.071Z,64.68
2022-12-27T09:23:43.144Z,64.50
2022-12-27T09:26:25.670Z,64.54
2022-12-27T09:28:53.951Z,64.15
2022-12-27T09:31:22.078Z,64.77
2022-12-27T09:33:49.430Z,64.36
2022-12-27T09:36:19.228Z,64.75
2022-12-27T09:38:46.945Z,65.30
2022-12-27T09:42:33.172Z,64.95
2022-12-27T09:44:22.784Z,65.33
2022-12-27T09:47:08.902Z,66.01
2022-12-27T09:49:43.496Z,65.31
2022-12-27T09:52:22.814Z,65.60
2022-12-27T09:55:05.781Z,65.02
2022-12-27T09:57:46.436Z,65.81
2022-12-27T10:00:20.041Z,66.16
2022-12-27T10:03:05.937Z,66.38
2022-12-27T10:05:36.581Z,66.56
2022-12-27T10:08:39.190Z,67.14
2022-12-27T10:11:31.284Z,67.16
2022-12-27T10:14:13.347Z,66.61
2022-12-27T10:17:04.970Z,65.90
2022-12-27T10:19:52.254Z,65.76
2022-12-27T10:22:31.334Z,65.09
2022-12-27T10:25:02.716Z,65.17
2022-12-27T10:27:31.170Z,64.76
2022-12-27T10:29:59.853Z,64.57
2022-12-27T10:32:27.460Z,64.04
2022-12-27T10:35:03.015Z,64.87
2022-12-27T10:37:30.152Z,64.95
2022-12-27T10:40:34.299Z,64.61
2022-12-27T10:43:14.357Z,64.90
2022-12-27T10:45:41.315Z,64.94
2022-12-27T10:48:13.647Z,64.84
2022-12-27T10:50:50.485Z,64.84
2022-12-27T10:53:34.188Z,65.45
2022-12-27T10:56:17.326Z,65.97
2022-12-27T10:58:48.402Z,65.23
2022-12-27T11:01:27.548Z,65.19
2022-12-27T11:04:11.921Z,65.03
2022-12-27T11:06:48.498Z,64.64
2022-12-27T11:09:29.170Z,65.37
2022-12-27T11:12:11.536Z,65.98
2022-12-27T11:14:38.517Z,66.36
2022-12-27T11:17:11.054Z,65.68
2022-12-27T11:19:45.014Z,65.96
2022-12-27T11:22:12.084Z,66.17
2022-12-27T11:24:46.293Z,65.65
2022-12-27T11:27:31.133Z,66.57
2022-12-27T11:29:59.664Z,67.21
2022-12-27T11:32:27.100Z,66.47
2022-12-27T11:34:56.072Z,66.41
2022-12-27T11:37:26.603Z,66.11
2022-12-27T11:40:10.397Z,66.59
2022-12-27T11:42:45.407Z,65.67
2022-12-27T11:45:18.160Z,65.83
2022-12-27T11:48:00.683Z,66.33
2022-12-27T11:50:27.610Z,66.06
2022-12-27T11:53:07.108Z,65.82
2022-12-27T11:55:33.974Z,66.45
2022-12-27T11:58:33.449Z,65.76
2022-12-27T12:01:35.349Z,66.34
2022-12-27T12:04:39.041Z,65.94
2022-12-27T12:07:33.908Z,65.67
2022-12-27T12:10:15.800Z,65.54
2022-12-27T12:13:01.071Z,65.57
2022-12-27T12:15:31.063Z,65.66
2022-12-27T12:18:07.094Z,66.04
2022-12-27T12:20:50.785Z,65.98
2022-12-27T12:23:39.873Z,65.83
2022-12-27T12:26:12.850Z,65.94
2022-12-27T12:28:59.497Z,65.19
2022-12-27T12:31:51.359Z,65.88
2022-12-27T12:34:55.844Z,65.47
2022-12-27T12:37:51.961Z,65.19
2022-12-27T12:40:34.822Z,66.49
2022-12-27T12:43:39.642Z,66.67
2022-12-27T12:46:33.195Z,66.38
2022-12-27T12:49:10.512Z,66.25
2022-12-27T12:51:51.445Z,65.34
2022-12-27T12:54:39.684Z,65.81
2022-12-27T12:57:16.966Z,65.40
2022-12-27T13:00:10.819Z,65.62
2022-12-27T13:03:04.497Z,65.88
2022-12-27T13:05:46.319Z,66.15
2022-12-27T13:08:42.155Z,66.42
2022-12-27T13:11:24.398Z,66.11
2022-12-27T13:14:21.199Z,66.07
2022-12-27T13:17:12.903Z,66.42
2022-12-27T13:20:06.331Z,66.43
2022-12-27T13:23:05.594Z,66.54
2022-12-27T13:25:35.602Z,65.97
2022-12-27T13:28:14.993Z,66.08
2022-12-27T13:31:08.303Z,66.14
2022-12-27T13:33:44.378Z,66.23
2022-12-27T13:36:34.522Z,65.61
2022-12-27T13:39:33.220Z,66.89
2022-12-27T13:42:24.774Z,66.34
2022-12-27T13:45:03.870Z,65.95
2022-12-27T13:48:07.571Z,65.72
2022-12-27T13:50:51.778Z,65.98
2022-12-27T13:53:32.052Z,65.59
2022-12-27T13:56:52.701Z,65.95
2022-12-27T13:59:25.529Z,66.63
2022-12-27T14:02:17.975Z,66.92
2022-12-27T14:05:15.984Z,66.66
2022-12-27T14:07:55.021Z,66.55
2022-12-27T14:10:28.055Z,66.18
2022-12-27T14:13:06.348Z,65.88
2022-12-27T14:16:04.406Z,66.01
2022-12-27T14:18:31.316Z,66.35
2022-12-27T14:21:26.041Z,66.63
2022-12-27T14:24:17.660Z,66.14
2022-12-27T14:27:21.927Z,65.97
2022-12-27T14:30:34.291Z,66.47
2022-12-27T14:33:13.093Z,66.10
2022-12-27T14:36:11.714Z,66.27
2022-12-27T14:38:57.085Z,65.70
2022-12-27T14:42:04.657Z,65.93
2022-12-27T14:45:12.947Z,66.73
2022-12-27T14:48:18.826Z,66.17
2022-12-27T14:51:41.517Z,65.94
2022-12-27T14:54:16.706Z,66.30
2022-12-27T14:56:49.745Z,65.90
2022-12-27T14:59:31.887Z,66.10
2022-12-27T15:02:17.141Z,65.64
2022-12-27T15:04:44.386Z,66.08
2022-12-27T15:07:30.051Z,65.42
2022-12-27T15:10:21.002Z,65.98
2022-12-27T15:13:14.384Z,66.38
2022-12-27T15:15:56.621Z,66.76
2022-12-27T15:18:42.155Z,66.49
2022-12-27T15:21:46.591Z,66.24
2022-12-27T15:24:13.625Z,66.55
2022-12-27T15:27:01.358Z,66.31
2022-12-27T15:30:04.694Z,67.15
2022-12-27T15:32:53.181Z,66.84
2022-12-27T15:35:57.538Z,66.61
2022-12-27T15:38:27.206Z,65.94
2022-12-27T15:41:06.082Z,66.78
2022-12-27T15:44:10.028Z,66.69
2022-12-27T15:47:03.482Z,67.38
2022-12-27T15:50:00.196Z,67.67
2022-12-27T15:52:36.172Z,67.73
2022-12-27T15:55:24.945Z,67.51
2022-12-27T15:57:59.678Z,66.70
2022-12-27T16:00:33.642Z,67.50
2022-12-27T16:03:30.025Z,67.32
2022-12-27T16:05:57.397Z,68.24
2022-12-27T16:08:29.282Z,68.65
2022-12-27T16:10:57.216Z,68.52
2022-12-27T16:13:42.901Z,68.97
2022-12-27T16:16:32.084Z,68.13
2022-12-27T16:19:14.483Z,68.75
2022-12-27T16:21:45.025Z,68.97
2022-12-27T16:24:23.930Z,68.56
2022-12-27T16:27:02.446Z,69.06
2022-12-27T16:29:33.681Z,68.35
2022-12-27T16:32:27.631Z,68.77
2022-12-27T16:35:09.250Z,68.87
2022-12-27T16:37:45.472Z,69.39
2022-12-27T16:40:36.829Z,69.14
2022-12-27T16:43:09.835Z,69.11
2022-12-27T16:45:39.437Z,68.90
2022-12-27T16:48:25.886Z,69.75
2022-12-27T16:51:21.579Z,69.04
2022-12-27T16:54:05.942Z,70.10
2022-12-27T16:56:36.459Z,69.54
2022-12-27T16:59:03.764Z,68.94
2022-12-27T17:01:36.707Z,69.63
2022-12-27T17:04:04.109Z,69.32
2022-12-27T17:06:32.665Z,69.13
2022-12-27T17:09:09.916Z,68.97
2022-12-27T17:12:01.863Z,68.80
2022-12-27T17:14:35.016Z,69.60
2022-12-27T17:17:18.170Z,68.87
2022-12-27T17:20:06.195Z,69.44
2022-12-27T17:22:35.324Z,68.72
2022-12-27T17:25:03.947Z,68.56
2022-12-27T17:27:56.831Z,69.11
2022-12-27T17:30:51.091Z,69.33
2022-12-27T17:33:25.802Z,68.72
2022-12-27T17:36:13.892Z,68.46
2022-12-27T17:39:19.210Z,68.93
2022-12-27T17:42:00.261Z,68.45
2022-12-27T17:44:51.791Z,68.54
2022-12-27T17:47:52.250Z,68.30
2022-12-27T17:50:24.131Z,68.41
2022-12-27T17:53:14.454Z,69.44
2022-12-27T17:55:41.858Z,68.49
2022-12-27T17:58:12.171Z,68.88
2022-12-27T18:01:01.365Z,68.70
2022-12-27T18:03:46.253Z,68.56
2022-12-27T18:06:19.376Z,68.25
2022-12-27T18:08:48.518Z,68.30
2022-12-27T18:11:16.496Z,67.97
2022-12-27T18:13:55.229Z,68.55
2022-12-27T18:16:33.576Z,68.26
2022-12-27T18:19:00.552Z,67.58
2022-12-27T18:21:29.600Z,67.39
2022-12-27T18:23:57.097Z,67.50
2022-12-27T18:26:59.488Z,67.71
2022-12-27T18:29:26.520Z,67.97
2022-12-27T18:31:58.753Z,68.29
2022-12-27T18:34:28.638Z,67.96
2022-12-27T18:37:12.049Z,68.47
2022-12-27T18:39:43.051Z,68.40
2022-12-27T18:42:34.143Z,68.23
2022-12-27T18:45:15.138Z,67.95
2022-12-27T18:47:47.405Z,68.79
2022-12-27T18:50:34.953Z,68.68
2022-12-27T18:53:03.524Z,68.67
2022-12-27T18:55:30.738Z,68.12
2022-12-27T18:58:07.150Z,68.59
2022-12-27T19:00:48.519Z,68.98
2022-12-27T19:03:18.433Z,68.77
2022-12-27T19:06:00.596Z,68.99
2022-12-27T19:08:44.860Z,69.00
2022-12-27T19:11:24.118Z,69.14
2022-12-27T19:13:55.535Z,68.69
2022-12-27T19:16:26.859Z,69.28
2022-12-27T19:18:56.413Z,68.79
2022-12-27T19:21:33.842Z,69.17
2022-12-27T19:24:20.168Z,68.83
2022-12-27T19:26:47.564Z,68.78
2022-12-27T19:29:18.594Z,69.78
2022-12-27T19:32:04.541Z,69.49
2022-12-27T19:34:45.760Z,70.14
2022-12-27T19:37:13.451Z,68.45
2022-12-27T19:39:41.655Z,68.58
2022-12-27T19:42:17.024Z,69.05
2022-12-27T19:44:44.168Z,69.75
2022-12-27T19:47:14.141Z,69.47
2022-12-27T19:49:42.845Z,69.66
2022-12-27T19:52:29.211Z,68.56
2022-12-27T19:55:04.737Z,68.77
2022-12-27T19:57:31.706Z,69.42
2022-12-27T19:59:58.547Z,68.97
2022-12-27T20:02:26.305Z,69.49
2022-12-27T20:04:53.293Z,69.61
2022-12-27T20:07:25.462Z,68.97
2022-12-27T20:09:52.450Z,69.08
2022-12-27T20:12:19.404Z,69.41
2022-12-27T20:15:04.845Z,69.44
2022-12-27T20:17:31.923Z,69.36
2022-12-27T20:19:58.968Z,69.84
2022-12-27T20:22:25.970Z,69.26
2022-12-27T20:24:52.825Z,69.76
2022-12-27T20:27:19.783Z,69.10
2022-12-27T20:29:46.668Z,69.39
2022-12-27T20:32:13.663Z,69.11
2022-12-27T20:34:40.557Z,69.17
2022-12-27T20:37:07.700Z,69.72
2022-12-27T20:39:34.744Z,70.10
2022-12-27T20:42:01.755Z,69.41
2022-12-27T20:44:28.635Z,69.49
2022-12-27T20:46:55.542Z,68.63
2022-12-27T20:49:22.329Z,68.86
2022-12-27T20:52:07.580Z,69.79
2022-12-27T20:54:34.600Z,69.93
2022-12-27T20:57:01.427Z,70.00
2022-12-27T20:59:28.414Z,69.89
2022-12-27T21:01:57.444Z,69.31
2022-12-27T21:04:26.306Z,69.19
2022-12-27T21:06:53.513Z,69.16
2022-12-27T21:09:20.502Z,69.47
2022-12-27T21:11:51.524Z,69.21
2022-12-27T21:14:18.698Z,69.31
2022-12-27T21:16:45.593Z,69.49
2022-12-27T21:19:12.688Z,69.31
2022-12-27T21:21:41.318Z,69.60
2022-12-27T21:24:09.702Z,69.45
2022-12-27T21:26:38.435Z,68.82
2022-12-27T21:29:08.066Z,69.85
2022-12-27T21:31:35.670Z,69.28
2022-12-27T21:34:02.650Z,68.31
2022-12-27T21:36:32.085Z,69.27
2022-12-27T21:38:59.270Z,68.50
2022-12-27T21:41:31.244Z,68.61
2022-12-27T21:43:58.746Z,68.35
2022-12-27T21:46:31.576Z,68.32
2022-12-27T21:49:04.874Z,68.59
2022-12-27T21:51:32.815Z,68.95
2022-12-27T21:54:00.380Z,69.70
2022-12-27T21:56:28.181Z,68.97
2022-12-27T21:58:54.983Z,69.23
2022-12-27T22:01:24.588Z,69.48
2022-12-27T22:03:53.123Z,68.80
2022-12-27T22:06:21.411Z,68.12
2022-12-27T22:08:50.445Z,68.55
2022-12-27T22:11:18.905Z,68.41
2022-12-27T22:13:45.951Z,68.15
2022-12-27T22:16:21.357Z,67.28
2022-12-27T22:18:49.148Z,67.09
2022-12-27T22:21:18.802Z,67.25
2022-12-27T22:23:47.996Z,66.98
2022-12-27T22:26:20.905Z,66.93
2022-12-27T22:28:48.388Z,67.54
2022-12-27T22:31:24.087Z,67.40
2022-12-27T22:33:51.969Z,67.96
2022-12-27T22:36:41.135Z,66.85
2022-12-27T22:39:08.297Z,67.49
2022-12-27T22:41:36.785Z,67.76
2022-12-27T22:44:06.292Z,67.71
2022-12-27T22:49:21.008Z,67.63
2022-12-27T22:51:47.867Z,67.02
2022-12-27T22:54:14.771Z,67.44
2022-12-27T22:56:42.938Z,68.54
2022-12-27T22:59:32.000Z,69.12
2022-12-27T23:01:58.927Z,68.35
2022-12-27T23:04:25.827Z,67.72
2022-12-27T23:06:52.808Z,67.42
2022-12-27T23:09:19.604Z,67.26
2022-12-27T23:11:46.626Z,67.47
2022-12-27T23:14:32.157Z,67.87
2022-12-27T23:16:59.116Z,66.78
2022-12-27T23:19:26.016Z,67.38
2022-12-27T23:21:52.980Z,67.98
2022-12-27T23:24:19.913Z,68.34
2022-12-27T23:26:46.823Z,68.02
2022-12-27T23:29:14.843Z,68.56
2022-12-27T23:31:54.065Z,68.46
2022-12-27T23:34:28.587Z,68.90
2022-12-27T23:36:57.546Z,69.16
2022-12-27T23:39:24.701Z,69.46
2022-12-27T23:41:51.639Z,68.83
2022-12-27T23:44:32.743Z,69.21
2022-12-27T23:47:03.216Z,68.87
2022-12-27T23:49:30.450Z,69.21
2022-12-27T23:51:57.564Z,69.95
2022-12-27T23:54:24.410Z,69.89
2022-12-27T23:56:51.360Z,69.99
2022-12-27T23:59:18.223Z,70.79
